createdAt,value
2023-08-18T00:00:12.871Z,27.05
2023-08-18T00:02:41.310Z,27.21
2023-08-18T00:05:08.841Z,27.02
2023-08-18T00:07:35.737Z,27.03
2023-08-18T00:10:04.118Z,27.24
2023-08-18T00:12:31.574Z,27.18
2023-08-18T00:14:58.600Z,27.32
2023-08-18T00:17:25.323Z,26.86
2023-08-18T00:19:52.258Z,26.94
2023-08-18T00:22:18.902Z,26.70
2023-08-18T00:24:46.400Z,27.09
2023-08-18T00:27:13.035Z,27.05
2023-08-18T00:29:40.175Z,27.11
2023-08-18T00:32:07.259Z,27.26
2023-08-18T00:34:33.931Z,27.41
2023-08-18T00:37:01.165Z,27.57
2023-08-18T00:39:27.778Z,27.65
2023-08-18T00:41:54.699Z,27.29
2023-08-18T00:44:21.310Z,27.23
2023-08-18T00:46:48.264Z,27.00
2023-08-18T00:49:17.404Z,27.12
2023-08-18T00:51:46.686Z,27.03
2023-08-18T00:54:14.618Z,26.91
2023-08-18T00:56:43.742Z,27.06
2023-08-18T00:59:11.635Z,27.01
2023-08-18T01:01:38.546Z,27.25
2023-08-18T01:04:06.116Z,27.53
2023-08-18T01:06:33.866Z,27.53
2023-08-18T01:09:01.604Z,27.67
2023-08-18T01:11:44.165Z,27.71
2023-08-18T01:14:42.379Z,27.83
2023-08-18T01:17:18.629Z,27.82
2023-08-18T01:19:46.707Z,27.89
2023-08-18T01:22:17.936Z,27.92
2023-08-18T01:24:45.629Z,27.96
2023-08-18T01:27:13.671Z,28.00
2023-08-18T01:29:41.052Z,27.94
2023-08-18T01:32:08.943Z,27.96
2023-08-18T01:34:41.848Z,27.80
2023-08-18T01:37:10.081Z,27.75
2023-08-18T01:39:38.571Z,27.78
2023-08-18T01:42:05.657Z,27.66
2023-08-18T01:44:32.331Z,27.66
2023-08-18T01:46:59.946Z,27.71
2023-08-18T01:49:27.189Z,27.63
2023-08-18T01:51:53.967Z,27.57
2023-08-18T01:54:21.172Z,27.55
2023-08-18T01:56:47.906Z,27.54
2023-08-18T01:59:15.691Z,27.60
2023-08-18T02:01:42.663Z,27.52
2023-08-18T02:04:09.476Z,27.66
2023-08-18T02:06:36.652Z,27.24
2023-08-18T02:09:04.589Z,26.69
2023-08-18T02:11:32.896Z,26.21
2023-08-18T02:13:59.598Z,25.64
2023-08-18T02:16:26.351Z,25.99
2023-08-18T02:18:53.421Z,25.92
2023-08-18T02:21:20.024Z,25.97
2023-08-18T02:23:46.615Z,25.92
2023-08-18T02:26:14.167Z,25.58
2023-08-18T02:28:41.094Z,25.82
2023-08-18T02:31:09.002Z,26.02
2023-08-18T02:33:36.110Z,26.33
2023-08-18T02:36:03.187Z,26.47
2023-08-18T02:38:31.415Z,26.36
2023-08-18T02:40:58.153Z,26.02
2023-08-18T02:43:25.298Z,25.85
2023-08-18T02:46:02.118Z,25.81
2023-08-18T02:48:30.231Z,25.65
2023-08-18T02:51:07.732Z,25.71
2023-08-18T02:53:35.012Z,25.59
2023-08-18T02:56:02.371Z,25.82
2023-08-18T02:58:30.748Z,25.90
2023-08-18T03:01:02.571Z,26.04
2023-08-18T03:03:29.707Z,25.69
2023-08-18T03:06:03.945Z,25.25
2023-08-18T03:08:30.860Z,25.43
2023-08-18T03:10:59.614Z,25.23
2023-08-18T03:13:28.328Z,25.74
2023-08-18T03:15:55.554Z,25.79
2023-08-18T03:18:22.256Z,26.02
2023-08-18T03:20:50.382Z,25.42
2023-08-18T03:23:19.299Z,24.98
2023-08-18T03:25:46.388Z,24.97
2023-08-18T03:28:13.095Z,25.04
2023-08-18T03:30:41.111Z,25.25
2023-08-18T03:33:08.607Z,25.11
2023-08-18T03:35:39.617Z,25.53
2023-08-18T03:38:06.422Z,25.74
2023-08-18T03:40:33.330Z,25.86
2023-08-18T03:43:00.001Z,25.54
2023-08-18T03:45:29.062Z,24.96
2023-08-18T03:47:56.155Z,24.99
2023-08-18T03:50:23.223Z,24.70
2023-08-18T03:52:50.008Z,24.32
2023-08-18T03:55:17.670Z,24.25
2023-08-18T03:57:44.273Z,24.10
2023-08-18T04:00:12.617Z,23.78
2023-08-18T04:02:44.080Z,23.92
2023-08-18T04:05:15.311Z,23.59
2023-08-18T04:07:41.955Z,23.88
2023-08-18T04:10:08.927Z,23.98
2023-08-18T04:12:35.659Z,23.90
2023-08-18T04:15:02.723Z,24.02
2023-08-18T04:17:30.092Z,24.08
2023-08-18T04:19:58.839Z,24.23
2023-08-18T04:22:25.618Z,24.07
2023-08-18T04:24:52.388Z,23.87
2023-08-18T04:27:19.006Z,24.11
2023-08-18T04:29:45.582Z,24.55
2023-08-18T04:32:12.976Z,24.33
2023-08-18T04:34:40.938Z,24.44
2023-08-18T04:37:07.661Z,24.24
2023-08-18T04:39:34.513Z,24.28
2023-08-18T04:42:01.584Z,24.63
2023-08-18T04:44:31.402Z,24.24
2023-08-18T04:46:58.142Z,24.12
2023-08-18T04:49:25.232Z,24.04
2023-08-18T04:51:51.840Z,24.22
2023-08-18T04:54:19.667Z,23.97
2023-08-18T04:56:47.566Z,24.02
2023-08-18T04:59:15.681Z,24.25
2023-08-18T05:01:43.813Z,24.00
2023-08-18T05:04:10.454Z,24.00
2023-08-18T05:06:37.228Z,23.44
2023-08-18T05:09:06.471Z,23.53
2023-08-18T05:11:33.305Z,23.30
2023-08-18T05:13:59.908Z,23.71
2023-08-18T05:16:26.615Z,23.03
2023-08-18T05:18:56.456Z,23.69
2023-08-18T05:21:23.844Z,23.72
2023-08-18T05:23:50.983Z,23.83
2023-08-18T05:26:18.042Z,23.52
2023-08-18T05:28:45.496Z,23.45
2023-08-18T05:31:12.256Z,23.20
2023-08-18T05:33:38.968Z,23.40
2023-08-18T05:36:06.846Z,22.95
2023-08-18T05:38:33.942Z,22.83
2023-08-18T05:41:11.396Z,22.96
2023-08-18T05:43:40.142Z,23.07
2023-08-18T05:46:07.688Z,23.23
2023-08-18T05:48:34.478Z,23.99
2023-08-18T05:51:01.884Z,23.85
2023-08-18T05:53:29.156Z,23.71
2023-08-18T05:55:55.752Z,23.61
2023-08-18T05:58:22.435Z,24.14
2023-08-18T06:00:50.887Z,24.13
2023-08-18T06:03:21.060Z,24.20
2023-08-18T06:05:51.332Z,23.98
2023-08-18T06:08:18.112Z,23.95
2023-08-18T06:10:45.133Z,24.17
2023-08-18T06:13:12.261Z,24.56
2023-08-18T06:15:38.881Z,25.03
2023-08-18T06:18:05.962Z,25.72
2023-08-18T06:20:32.639Z,25.44
2023-08-18T06:22:59.650Z,25.54
2023-08-18T06:25:26.301Z,25.60
2023-08-18T06:27:53.050Z,25.98
2023-08-18T06:30:20.086Z,25.77
2023-08-18T06:32:47.170Z,26.06
2023-08-18T06:35:14.412Z,26.11
2023-08-18T06:37:41.069Z,26.21
2023-08-18T06:40:08.805Z,26.36
2023-08-18T06:42:35.761Z,26.22
2023-08-18T06:45:04.666Z,26.26
2023-08-18T06:47:32.502Z,26.16
2023-08-18T06:50:01.080Z,26.88
2023-08-18T06:52:29.685Z,26.70
2023-08-18T06:54:56.420Z,26.09
2023-08-18T06:57:23.879Z,26.39
2023-08-18T06:59:51.019Z,26.66
2023-08-18T07:02:18.156Z,26.42
2023-08-18T07:04:44.948Z,26.64
2023-08-18T07:07:11.979Z,26.88
2023-08-18T07:09:38.838Z,27.35
2023-08-18T07:12:05.894Z,28.05
2023-08-18T07:14:32.565Z,28.22
2023-08-18T07:17:00.831Z,28.51
2023-08-18T07:19:27.527Z,29.12
2023-08-18T07:21:54.218Z,29.27
2023-08-18T07:24:20.813Z,29.88
2023-08-18T07:26:47.764Z,29.95
2023-08-18T07:29:14.326Z,30.46
2023-08-18T07:31:41.001Z,30.89
2023-08-18T07:34:07.975Z,31.08
2023-08-18T07:36:34.891Z,31.33
2023-08-18T07:39:01.834Z,31.62
2023-08-18T07:41:30.070Z,32.85
2023-08-18T07:43:56.775Z,33.58
2023-08-18T07:46:24.324Z,34.25
2023-08-18T07:48:51.065Z,34.75
2023-08-18T07:51:18.689Z,35.17
2023-08-18T07:53:45.829Z,35.94
2023-08-18T07:56:13.051Z,36.24
2023-08-18T07:58:40.274Z,36.16
2023-08-18T08:01:07.192Z,36.31
2023-08-18T08:03:34.021Z,35.95
2023-08-18T08:06:00.767Z,35.83
2023-08-18T08:08:27.455Z,36.36
2023-08-18T08:10:54.533Z,36.49
2023-08-18T08:13:21.906Z,36.42
2023-08-18T08:15:49.060Z,36.07
2023-08-18T08:18:18.273Z,36.27
2023-08-18T08:20:45.660Z,36.33
2023-08-18T08:23:12.346Z,36.18
2023-08-18T08:25:41.366Z,36.22
2023-08-18T08:28:08.031Z,36.26
2023-08-18T08:30:36.597Z,36.24
2023-08-18T08:33:07.715Z,36.26
2023-08-18T08:35:35.945Z,36.43
2023-08-18T08:38:03.146Z,36.15
2023-08-18T08:40:29.850Z,35.88
2023-08-18T08:45:28.702Z,35.53
2023-08-18T08:47:58.071Z,35.58
2023-08-18T08:50:31.296Z,35.92
2023-08-18T08:53:01.607Z,36.02
2023-08-18T08:55:33.487Z,36.65
2023-08-18T08:58:00.941Z,37.09
2023-08-18T09:00:28.566Z,37.64
2023-08-18T09:03:01.465Z,37.95
2023-08-18T09:05:30.837Z,37.99
2023-08-18T09:07:57.957Z,37.32
2023-08-18T09:10:26.911Z,36.40
2023-08-18T09:12:54.112Z,36.12
2023-08-18T09:15:23.822Z,36.45
2023-08-18T09:17:51.844Z,35.55
2023-08-18T09:20:19.178Z,35.79
2023-08-18T09:22:46.332Z,34.96
2023-08-18T09:25:14.625Z,34.59
2023-08-18T09:27:41.365Z,35.27
2023-08-18T09:30:08.536Z,34.94
2023-08-18T09:32:39.279Z,34.83
2023-08-18T09:35:11.898Z,35.32
2023-08-18T09:37:39.742Z,34.93
2023-08-18T09:40:07.168Z,34.56
2023-08-18T09:42:34.337Z,33.97
2023-08-18T09:45:01.652Z,34.43
2023-08-18T09:47:30.941Z,34.97
2023-08-18T09:50:00.906Z,34.47
2023-08-18T09:52:30.974Z,34.64
2023-08-18T09:55:11.350Z,35.00
2023-08-18T09:57:55.449Z,35.79
2023-08-18T10:00:23.813Z,35.49
2023-08-18T10:02:53.974Z,35.06
2023-08-18T10:05:23.254Z,34.67
2023-08-18T10:07:52.561Z,35.76
2023-08-18T10:10:19.420Z,35.58
2023-08-18T10:12:46.367Z,35.29
2023-08-18T10:15:14.995Z,35.16
2023-08-18T10:17:43.031Z,35.93
2023-08-18T10:20:13.225Z,36.81
2023-08-18T10:22:42.986Z,37.17
2023-08-18T10:25:10.580Z,36.51
2023-08-18T10:27:40.272Z,36.89
2023-08-18T10:30:10.331Z,37.08
2023-08-18T10:32:37.966Z,37.86
2023-08-18T10:35:24.074Z,38.39
2023-08-18T10:38:05.956Z,38.39
2023-08-18T10:40:37.500Z,38.72
2023-08-18T10:43:07.095Z,38.24
2023-08-18T10:45:34.495Z,36.63
2023-08-18T10:48:07.272Z,36.17
2023-08-18T10:50:40.828Z,36.50
2023-08-18T10:53:09.213Z,36.28
2023-08-18T10:55:35.963Z,36.15
2023-08-18T10:58:03.684Z,35.41
2023-08-18T11:00:34.969Z,35.88
2023-08-18T11:03:02.249Z,36.61
2023-08-18T11:05:35.206Z,36.72
2023-08-18T11:08:04.960Z,36.75
2023-08-18T11:10:33.536Z,36.62
2023-08-18T11:13:00.785Z,36.05
2023-08-18T11:15:27.708Z,36.25
2023-08-18T11:17:54.881Z,36.66
2023-08-18T11:20:22.756Z,36.52
2023-08-18T11:22:55.056Z,36.64
2023-08-18T11:25:24.196Z,36.77
2023-08-18T11:27:53.899Z,35.72
2023-08-18T11:30:22.126Z,35.34
2023-08-18T11:32:50.483Z,35.51
2023-08-18T11:35:19.929Z,35.81
2023-08-18T11:37:49.114Z,35.31
2023-08-18T11:40:18.919Z,35.62
2023-08-18T11:42:47.752Z,37.02
2023-08-18T11:45:20.585Z,37.21
2023-08-18T11:47:49.522Z,36.47
2023-08-18T11:50:22.462Z,36.71
2023-08-18T11:52:53.525Z,36.82
2023-08-18T11:55:51.428Z,36.64
2023-08-18T11:58:22.910Z,36.17
2023-08-18T12:00:49.963Z,36.75
2023-08-18T12:03:23.347Z,36.90
2023-08-18T12:05:51.891Z,37.41
2023-08-18T12:08:18.674Z,36.30
2023-08-18T12:10:49.157Z,36.79
2023-08-18T12:16:04.810Z,37.25
2023-08-18T12:18:31.432Z,37.24
2023-08-18T12:20:58.042Z,35.98
2023-08-18T12:23:24.661Z,35.74
2023-08-18T12:25:52.051Z,36.50
2023-08-18T12:28:19.155Z,36.07
2023-08-18T12:30:45.812Z,35.07
2023-08-18T12:33:13.380Z,35.35
2023-08-18T12:35:39.956Z,35.52
2023-08-18T12:38:07.356Z,35.52
2023-08-18T12:40:33.953Z,34.97
2023-08-18T12:43:03.491Z,35.39
2023-08-18T12:45:30.306Z,36.88
2023-08-18T12:47:57.434Z,36.42
2023-08-18T12:50:24.499Z,36.23
2023-08-18T12:52:51.389Z,36.26
2023-08-18T12:55:18.012Z,36.26
2023-08-18T12:57:46.212Z,36.08
2023-08-18T13:00:13.408Z,36.29
2023-08-18T13:02:40.092Z,35.97
2023-08-18T13:05:07.565Z,36.15
2023-08-18T13:07:34.141Z,36.38
2023-08-18T13:10:01.870Z,36.10
2023-08-18T13:12:28.523Z,35.95
2023-08-18T13:14:55.138Z,35.85
2023-08-18T13:17:22.288Z,35.57
2023-08-18T13:19:50.164Z,36.43
2023-08-18T13:22:23.810Z,36.19
2023-08-18T13:24:53.741Z,36.12
2023-08-18T13:27:24.641Z,35.47
2023-08-18T13:29:51.935Z,36.18
2023-08-18T13:32:18.791Z,36.15
2023-08-18T13:34:46.430Z,36.48
2023-08-18T13:37:13.420Z,35.81
2023-08-18T13:39:40.020Z,35.94
2023-08-18T13:42:06.792Z,36.02
2023-08-18T13:44:33.379Z,36.06
2023-08-18T13:46:59.940Z,36.13
2023-08-18T13:49:28.300Z,36.81
2023-08-18T13:51:55.901Z,36.37
2023-08-18T13:54:22.766Z,36.28
2023-08-18T13:56:49.384Z,36.89
2023-08-18T13:59:16.829Z,36.90
2023-08-18T14:01:43.898Z,36.52
2023-08-18T14:04:10.568Z,36.13
2023-08-18T14:06:37.607Z,36.61
2023-08-18T14:09:05.171Z,35.99
2023-08-18T14:11:33.534Z,36.04
2023-08-18T14:14:00.304Z,36.29
2023-08-18T14:16:28.516Z,36.28
2023-08-18T14:18:58.287Z,36.27
2023-08-18T14:21:28.348Z,36.31
2023-08-18T14:23:57.904Z,35.90
2023-08-18T14:26:25.158Z,35.71
2023-08-18T14:28:51.822Z,35.48
2023-08-18T14:31:19.609Z,35.29
2023-08-18T14:33:47.673Z,35.48
2023-08-18T14:36:16.349Z,35.50
2023-08-18T14:38:44.121Z,36.05
2023-08-18T14:41:11.248Z,35.77
2023-08-18T14:43:38.308Z,36.06
2023-08-18T14:46:09.007Z,36.29
2023-08-18T14:48:36.072Z,36.72
2023-08-18T14:51:06.492Z,36.18
2023-08-18T14:53:33.381Z,36.53
2023-08-18T14:56:00.882Z,36.66
2023-08-18T14:58:28.369Z,36.99
2023-08-18T15:00:55.598Z,36.30
2023-08-18T15:03:22.878Z,36.65
2023-08-18T15:05:50.746Z,37.00
2023-08-18T15:08:17.612Z,36.31
2023-08-18T15:10:44.211Z,36.24
2023-08-18T15:13:10.820Z,36.25
2023-08-18T15:15:38.215Z,36.50
2023-08-18T15:18:05.757Z,35.81
2023-08-18T15:20:32.547Z,35.98
2023-08-18T15:22:59.771Z,35.89
2023-08-18T15:25:26.686Z,36.29
2023-08-18T15:27:53.294Z,36.02
2023-08-18T15:30:20.007Z,36.17
2023-08-18T15:32:46.583Z,35.82
2023-08-18T15:35:13.467Z,35.69
2023-08-18T15:37:40.640Z,34.82
2023-08-18T15:40:07.969Z,35.33
2023-08-18T15:42:34.852Z,35.44
2023-08-18T15:45:01.991Z,34.91
2023-08-18T15:47:29.059Z,34.87
2023-08-18T15:49:55.963Z,35.03
2023-08-18T15:52:22.643Z,34.52
2023-08-18T15:54:50.783Z,34.76
2023-08-18T15:57:17.530Z,35.27
2023-08-18T15:59:44.140Z,35.16
2023-08-18T16:02:10.734Z,35.14
2023-08-18T16:04:39.969Z,35.45
2023-08-18T16:07:07.095Z,35.43
2023-08-18T16:09:34.108Z,36.40
2023-08-18T16:12:00.977Z,36.75
2023-08-18T16:15:09.075Z,36.39
2023-08-18T16:17:15.069Z,35.90
2023-08-18T16:19:42.313Z,35.05
2023-08-18T16:22:09.209Z,34.76
2023-08-18T16:24:37.280Z,35.11
2023-08-18T16:27:04.687Z,35.60
2023-08-18T16:29:32.645Z,35.49
2023-08-18T16:32:00.242Z,35.95
2023-08-18T16:34:28.128Z,36.17
2023-08-18T16:36:56.664Z,36.92
2023-08-18T16:39:23.478Z,36.52
2023-08-18T16:41:50.147Z,36.37
2023-08-18T16:44:16.857Z,36.67
2023-08-18T16:46:44.078Z,36.64
2023-08-18T16:49:11.363Z,36.60
2023-08-18T16:51:38.019Z,36.57
2023-08-18T16:54:06.821Z,36.53
2023-08-18T16:56:33.430Z,36.28
2023-08-18T16:59:00.047Z,36.08
2023-08-18T17:01:26.729Z,36.02
2023-08-18T17:03:53.895Z,36.13
2023-08-18T17:06:20.508Z,35.77
2023-08-18T17:08:47.066Z,35.71
2023-08-18T17:11:13.646Z,35.79
2023-08-18T17:13:40.300Z,36.10
2023-08-18T17:16:06.902Z,36.05
2023-08-18T17:18:33.533Z,36.39
2023-08-18T17:21:00.112Z,36.34
2023-08-18T17:23:26.796Z,36.30
2023-08-18T17:25:54.505Z,35.81
2023-08-18T17:28:21.289Z,35.45
2023-08-18T17:30:48.315Z,36.05
2023-08-18T17:33:15.397Z,35.54
2023-08-18T17:35:45.508Z,35.29
2023-08-18T17:38:12.471Z,35.33
2023-08-18T17:40:40.098Z,35.44
2023-08-18T17:43:06.801Z,35.51
2023-08-18T17:45:35.929Z,35.72
2023-08-18T17:48:02.705Z,35.64
2023-08-18T17:50:29.377Z,35.91
2023-08-18T17:52:57.726Z,36.24
2023-08-18T17:55:24.956Z,36.08
2023-08-18T17:57:51.769Z,35.33
2023-08-18T18:00:18.766Z,34.99
2023-08-18T18:02:45.397Z,34.82
2023-08-18T18:05:12.530Z,34.87
2023-08-18T18:07:39.340Z,34.95
2023-08-18T18:10:06.945Z,35.49
2023-08-18T18:12:33.839Z,34.90
2023-08-18T18:15:01.002Z,35.07
2023-08-18T18:17:28.645Z,34.61
2023-08-18T18:19:55.972Z,34.54
2023-08-18T18:22:24.176Z,34.84
2023-08-18T18:24:50.933Z,34.92
2023-08-18T18:27:17.494Z,34.95
2023-08-18T18:29:44.412Z,34.59
2023-08-18T18:32:11.359Z,34.46
2023-08-18T18:34:38.336Z,34.17
2023-08-18T18:37:06.862Z,34.44
2023-08-18T18:39:34.668Z,34.72
2023-08-18T18:42:01.911Z,35.44
2023-08-18T18:44:29.016Z,35.69
2023-08-18T18:46:55.588Z,36.05
2023-08-18T18:49:22.692Z,36.23
2023-08-18T18:51:49.815Z,36.16
2023-08-18T18:54:17.090Z,36.08
2023-08-18T18:56:44.624Z,36.08
2023-08-18T18:59:11.440Z,36.03
2023-08-18T19:01:38.730Z,36.02
2023-08-18T19:04:06.204Z,36.17
2023-08-18T19:06:32.848Z,36.32
2023-08-18T19:08:59.426Z,36.29
2023-08-18T19:11:26.075Z,36.42
2023-08-18T19:13:52.681Z,36.46
2023-08-18T19:16:22.220Z,36.54
2023-08-18T19:18:48.909Z,36.63
2023-08-18T19:21:15.498Z,36.68
2023-08-18T19:23:42.076Z,36.71
2023-08-18T19:26:08.806Z,36.77
2023-08-18T19:28:35.713Z,36.72
2023-08-18T19:31:07.467Z,36.71
2023-08-18T19:33:34.481Z,36.72
2023-08-18T19:36:01.489Z,36.70
2023-08-18T19:38:28.264Z,36.66
2023-08-18T19:40:55.417Z,36.52
2023-08-18T19:43:22.185Z,36.40
2023-08-18T19:45:55.898Z,36.29
2023-08-18T19:48:22.501Z,36.12
2023-08-18T19:50:49.106Z,36.11
2023-08-18T19:53:15.769Z,36.06
2023-08-18T19:55:42.365Z,36.00
2023-08-18T19:58:09.124Z,35.94
2023-08-18T20:00:35.697Z,35.76
2023-08-18T20:03:04.120Z,35.64
2023-08-18T20:05:30.853Z,35.64
2023-08-18T20:07:58.440Z,35.59
2023-08-18T20:10:25.462Z,35.59
2023-08-18T20:12:52.378Z,35.46
2023-08-18T20:15:20.919Z,35.42
2023-08-18T20:17:47.896Z,35.38
2023-08-18T20:20:14.866Z,35.49
2023-08-18T20:22:42.612Z,35.54
2023-08-18T20:25:10.681Z,35.47
2023-08-18T20:27:38.418Z,35.28
2023-08-18T20:30:06.092Z,35.28
2023-08-18T20:32:38.582Z,35.31
2023-08-18T20:35:06.153Z,35.29
2023-08-18T20:37:32.988Z,35.27
2023-08-18T20:39:59.782Z,35.23
2023-08-18T20:42:26.601Z,35.10
2023-08-18T20:44:53.541Z,35.03
2023-08-18T20:47:20.250Z,34.86
2023-08-18T20:49:46.817Z,34.69
2023-08-18T20:52:13.985Z,34.59
2023-08-18T20:54:40.629Z,34.57
2023-08-18T20:57:07.298Z,34.53
2023-08-18T20:59:34.148Z,34.44
2023-08-18T21:02:01.049Z,34.48
2023-08-18T21:04:28.298Z,34.47
2023-08-18T21:06:55.341Z,34.41
2023-08-18T21:09:24.248Z,34.47
2023-08-18T21:11:51.794Z,34.52
2023-08-18T21:14:18.535Z,34.37
2023-08-18T21:16:45.531Z,34.34
2023-08-18T21:19:12.279Z,34.17
2023-08-18T21:21:39.050Z,34.03
2023-08-18T21:24:07.249Z,33.95
2023-08-18T21:26:34.390Z,33.76
2023-08-18T21:29:01.081Z,33.71
2023-08-18T21:31:27.749Z,33.63
2023-08-18T21:33:55.004Z,33.47
2023-08-18T21:36:24.952Z,33.17
2023-08-18T21:38:52.894Z,33.09
2023-08-18T21:41:19.807Z,33.06
2023-08-18T21:43:46.711Z,33.15
2023-08-18T21:46:13.503Z,33.07
2023-08-18T21:48:41.710Z,33.20
2023-08-18T21:51:09.204Z,33.23
2023-08-18T21:53:36.273Z,33.06
2023-08-18T21:56:03.738Z,32.97
2023-08-18T21:58:31.197Z,33.07
2023-08-18T22:00:58.625Z,33.12
2023-08-18T22:03:25.420Z,33.14
2023-08-18T22:05:53.174Z,32.94
2023-08-18T22:08:20.076Z,32.86
2023-08-18T22:10:46.813Z,32.65
2023-08-18T22:13:13.381Z,32.55
2023-08-18T22:15:40.000Z,32.39
2023-08-18T22:18:07.716Z,32.36
2023-08-18T22:20:34.536Z,32.56
2023-08-18T22:23:01.546Z,32.82
2023-08-18T22:25:28.144Z,32.92
2023-08-18T22:27:55.665Z,33.15
2023-08-18T22:30:22.377Z,33.35
2023-08-18T22:32:49.782Z,33.44
2023-08-18T22:35:16.555Z,33.61
2023-08-18T22:37:44.147Z,33.71
2023-08-18T22:40:11.629Z,33.80
2023-08-18T22:42:39.541Z,33.88
2023-08-18T22:45:11.680Z,33.92
2023-08-18T22:47:40.080Z,33.91
2023-08-18T22:50:07.840Z,33.69
2023-08-18T22:52:36.123Z,33.78
2023-08-18T22:55:04.442Z,33.73
2023-08-18T22:57:31.559Z,33.72
2023-08-18T22:59:59.275Z,33.66
2023-08-18T23:02:26.892Z,33.64
2023-08-18T23:04:53.735Z,33.64
2023-08-18T23:07:20.356Z,33.56
2023-08-18T23:09:47.118Z,33.54
2023-08-18T23:12:15.569Z,33.51
2023-08-18T23:14:42.948Z,33.50
2023-08-18T23:17:09.640Z,33.59
2023-08-18T23:19:36.679Z,33.60
2023-08-18T23:22:05.015Z,33.61
2023-08-18T23:24:32.549Z,33.57
2023-08-18T23:26:59.284Z,33.59
2023-08-18T23:29:26.456Z,33.49
2023-08-18T23:31:53.177Z,33.54
2023-08-18T23:34:20.784Z,33.51
2023-08-18T23:36:47.986Z,33.54
2023-08-18T23:39:14.640Z,33.53
2023-08-18T23:41:41.290Z,33.53
2023-08-18T23:44:08.045Z,33.53
2023-08-18T23:46:34.782Z,33.47
2023-08-18T23:49:01.427Z,33.48
2023-08-18T23:51:28.089Z,33.40
2023-08-18T23:53:55.448Z,33.34
2023-08-18T23:56:22.262Z,33.31
2023-08-18T23:58:48.897Z,33.28
